sensor_id;sensor_type;location;lat;lon;timestamp;P1;durP1;ratioP1;P2;durP2;ratioP2
21681;SDS011;11002;48.256;10.084;2023-11-21T00:02:16;3.13;;;0.77;;
21681;SDS011;11002;48.256;10.084;2023-11-21T00:04:45;4.90;;;0.57;;
21681;SDS011;11002;48.256;10.084;2023-11-21T00:09:49;2.20;;;0.90;;
21681;SDS011;11002;48.256;10.084;2023-11-21T00:12:24;5.00;;;0.50;;
21681;SDS011;11002;48.256;10.084;2023-11-21T00:14:57;4.07;;;0.70;;
21681;SDS011;11002;48.256;10.084;2023-11-21T00:17:25;1.85;;;0.70;;
21681;SDS011;11002;48.256;10.084;2023-11-21T00:19:54;2.85;;;0.63;;
21681;SDS011;11002;48.256;10.084;2023-11-21T00:22:29;3.80;;;0.40;;
21681;SDS011;11002;48.256;10.084;2023-11-21T00:25:07;2.58;;;0.65;;
21681;SDS011;11002;48.256;10.084;2023-11-21T00:27:46;2.40;;;0.40;;
21681;SDS011;11002;48.256;10.084;2023-11-21T00:30:47;4.57;;;0.68;;
21681;SDS011;11002;48.256;10.084;2023-11-21T00:33:55;0.90;;;0.68;;
21681;SDS011;11002;48.256;10.084;2023-11-21T00:36:28;3.17;;;0.65;;
21681;SDS011;11002;48.256;10.084;2023-11-21T00:38:56;4.32;;;1.33;;
21681;SDS011;11002;48.256;10.084;2023-11-21T00:41:26;0.55;;;0.50;;
21681;SDS011;11002;48.256;10.084;2023-11-21T00:43:57;6.65;;;0.65;;
21681;SDS011;11002;48.256;10.084;2023-11-21T00:46:26;5.18;;;0.90;;
21681;SDS011;11002;48.256;10.084;2023-11-21T00:49:07;9.70;;;0.80;;
21681;SDS011;11002;48.256;10.084;2023-11-21T00:51:39;2.72;;;0.98;;
21681;SDS011;11002;48.256;10.084;2023-11-21T00:54:13;1.70;;;0.70;;
21681;SDS011;11002;48.256;10.084;2023-11-21T00:56:44;1.10;;;0.65;;
21681;SDS011;11002;48.256;10.084;2023-11-21T00:59:13;3.67;;;0.60;;
21681;SDS011;11002;48.256;10.084;2023-11-21T01:02:03;1.17;;;0.80;;
21681;SDS011;11002;48.256;10.084;2023-11-21T01:04:39;5.35;;;1.05;;
21681;SDS011;11002;48.256;10.084;2023-11-21T01:07:10;2.50;;;1.02;;
21681;SDS011;11002;48.256;10.084;2023-11-21T01:09:39;2.25;;;0.82;;
21681;SDS011;11002;48.256;10.084;2023-11-21T01:12:19;4.32;;;0.88;;
21681;SDS011;11002;48.256;10.084;2023-11-21T01:14:58;4.60;;;1.10;;
21681;SDS011;11002;48.256;10.084;2023-11-21T01:17:29;2.67;;;1.33;;
21681;SDS011;11002;48.256;10.084;2023-11-21T01:20:05;3.63;;;1.50;;
21681;SDS011;11002;48.256;10.084;2023-11-21T01:25:46;1.85;;;0.63;;
21681;SDS011;11002;48.256;10.084;2023-11-21T01:28:43;3.40;;;0.63;;
21681;SDS011;11002;48.256;10.084;2023-11-21T01:32:00;4.88;;;0.82;;
21681;SDS011;11002;48.256;10.084;2023-11-21T01:34:51;5.22;;;0.95;;
21681;SDS011;11002;48.256;10.084;2023-11-21T01:37:19;2.60;;;1.25;;
21681;SDS011;11002;48.256;10.084;2023-11-21T01:40:09;5.22;;;1.08;;
21681;SDS011;11002;48.256;10.084;2023-11-21T01:42:52;1.08;;;0.80;;
21681;SDS011;11002;48.256;10.084;2023-11-21T01:46:14;3.63;;;0.60;;
21681;SDS011;11002;48.256;10.084;2023-11-21T01:49:06;3.22;;;0.65;;
21681;SDS011;11002;48.256;10.084;2023-11-21T01:51:51;2.65;;;0.73;;
21681;SDS011;11002;48.256;10.084;2023-11-21T01:54:40;1.70;;;0.50;;
21681;SDS011;11002;48.256;10.084;2023-11-21T01:57:31;4.45;;;1.17;;
21681;SDS011;11002;48.256;10.084;2023-11-21T02:00:17;2.75;;;0.32;;
21681;SDS011;11002;48.256;10.084;2023-11-21T02:02:51;1.25;;;0.50;;
21681;SDS011;11002;48.256;10.084;2023-11-21T02:05:19;4.68;;;0.68;;
21681;SDS011;11002;48.256;10.084;2023-11-21T02:07:59;2.50;;;0.50;;
21681;SDS011;11002;48.256;10.084;2023-11-21T02:10:31;9.32;;;0.70;;
21681;SDS011;11002;48.256;10.084;2023-11-21T02:13:03;3.65;;;0.68;;
21681;SDS011;11002;48.256;10.084;2023-11-21T02:15:40;1.00;;;0.68;;
21681;SDS011;11002;48.256;10.084;2023-11-21T02:18:12;1.63;;;0.63;;
21681;SDS011;11002;48.256;10.084;2023-11-21T02:20:41;1.38;;;0.52;;
21681;SDS011;11002;48.256;10.084;2023-11-21T02:23:11;6.10;;;0.65;;
21681;SDS011;11002;48.256;10.084;2023-11-21T02:25:43;1.40;;;0.60;;
21681;SDS011;11002;48.256;10.084;2023-11-21T02:28:42;0.85;;;0.20;;
21681;SDS011;11002;48.256;10.084;2023-11-21T02:31:45;0.22;;;0.22;;
21681;SDS011;11002;48.256;10.084;2023-11-21T02:34:17;2.28;;;0.40;;
21681;SDS011;11002;48.256;10.084;2023-11-21T02:36:56;0.20;;;0.20;;
21681;SDS011;11002;48.256;10.084;2023-11-21T02:39:45;2.08;;;0.50;;
21681;SDS011;11002;48.256;10.084;2023-11-21T02:42:28;2.20;;;0.47;;
21681;SDS011;11002;48.256;10.084;2023-11-21T02:44:58;1.13;;;0.20;;
21681;SDS011;11002;48.256;10.084;2023-11-21T02:47:27;1.95;;;0.52;;
21681;SDS011;11002;48.256;10.084;2023-11-21T02:49:57;0.43;;;0.20;;
21681;SDS011;11002;48.256;10.084;2023-11-21T02:52:28;0.95;;;0.32;;
21681;SDS011;11002;48.256;10.084;2023-11-21T02:55:01;1.17;;;0.35;;
21681;SDS011;11002;48.256;10.084;2023-11-21T02:57:31;1.25;;;0.40;;
21681;SDS011;11002;48.256;10.084;2023-11-21T03:00:12;0.50;;;0.20;;
21681;SDS011;11002;48.256;10.084;2023-11-21T03:02:50;0.38;;;0.38;;
21681;SDS011;11002;48.256;10.084;2023-11-21T03:05:27;0.40;;;0.15;;
21681;SDS011;11002;48.256;10.084;2023-11-21T03:08:12;1.27;;;0.32;;
21681;SDS011;11002;48.256;10.084;2023-11-21T03:10:53;0.20;;;0.10;;
21681;SDS011;11002;48.256;10.084;2023-11-21T03:13:44;0.40;;;0.40;;
21681;SDS011;11002;48.256;10.084;2023-11-21T03:16:18;2.38;;;0.47;;
21681;SDS011;11002;48.256;10.084;2023-11-21T03:18:46;0.43;;;0.38;;
21681;SDS011;11002;48.256;10.084;2023-11-21T03:21:28;1.20;;;0.20;;
21681;SDS011;11002;48.256;10.084;2023-11-21T03:24:01;0.60;;;0.25;;
21681;SDS011;11002;48.256;10.084;2023-11-21T03:26:35;1.98;;;0.35;;
21681;SDS011;11002;48.256;10.084;2023-11-21T03:29:26;0.88;;;0.30;;
21681;SDS011;11002;48.256;10.084;2023-11-21T03:32:16;2.50;;;0.30;;
21681;SDS011;11002;48.256;10.084;2023-11-21T03:34:56;1.55;;;0.30;;
21681;SDS011;11002;48.256;10.084;2023-11-21T03:37:33;2.50;;;0.35;;
21681;SDS011;11002;48.256;10.084;2023-11-21T03:40:07;1.83;;;0.50;;
21681;SDS011;11002;48.256;10.084;2023-11-21T03:42:42;1.55;;;0.50;;
21681;SDS011;11002;48.256;10.084;2023-11-21T03:45:15;1.38;;;0.45;;
21681;SDS011;11002;48.256;10.084;2023-11-21T03:47:46;2.75;;;0.30;;
21681;SDS011;11002;48.256;10.084;2023-11-21T03:50:23;0.45;;;0.10;;
21681;SDS011;11002;48.256;10.084;2023-11-21T03:52:55;0.22;;;0.20;;
21681;SDS011;11002;48.256;10.084;2023-11-21T03:55:27;2.63;;;0.32;;
21681;SDS011;11002;48.256;10.084;2023-11-21T03:58:17;2.08;;;0.40;;
21681;SDS011;11002;48.256;10.084;2023-11-21T04:00:55;2.05;;;0.60;;
21681;SDS011;11002;48.256;10.084;2023-11-21T04:03:49;4.25;;;0.88;;
21681;SDS011;11002;48.256;10.084;2023-11-21T04:06:37;0.73;;;0.22;;
21681;SDS011;11002;48.256;10.084;2023-11-21T04:09:15;0.20;;;0.20;;
21681;SDS011;11002;48.256;10.084;2023-11-21T04:11:48;0.10;;;0.10;;
21681;SDS011;11002;48.256;10.084;2023-11-21T04:14:30;1.80;;;0.28;;
21681;SDS011;11002;48.256;10.084;2023-11-21T04:17:17;2.63;;;0.75;;
21681;SDS011;11002;48.256;10.084;2023-11-21T04:19:59;0.52;;;0.40;;
21681;SDS011;11002;48.256;10.084;2023-11-21T04:22:56;3.70;;;0.40;;
21681;SDS011;11002;48.256;10.084;2023-11-21T04:25:46;2.08;;;0.30;;
21681;SDS011;11002;48.256;10.084;2023-11-21T04:28:13;1.40;;;0.47;;
21681;SDS011;11002;48.256;10.084;2023-11-21T04:30:42;2.72;;;0.50;;
21681;SDS011;11002;48.256;10.084;2023-11-21T04:33:09;3.17;;;0.70;;
21681;SDS011;11002;48.256;10.084;2023-11-21T04:35:37;1.25;;;0.47;;
21681;SDS011;11002;48.256;10.084;2023-11-21T04:38:04;4.18;;;0.40;;
21681;SDS011;11002;48.256;10.084;2023-11-21T04:40:31;2.33;;;0.68;;
21681;SDS011;11002;48.256;10.084;2023-11-21T04:42:58;2.30;;;0.40;;
21681;SDS011;11002;48.256;10.084;2023-11-21T04:45:26;2.85;;;0.50;;
21681;SDS011;11002;48.256;10.084;2023-11-21T04:47:55;4.40;;;0.60;;
21681;SDS011;11002;48.256;10.084;2023-11-21T04:50:22;1.27;;;0.57;;
21681;SDS011;11002;48.256;10.084;2023-11-21T04:52:51;2.70;;;0.40;;
21681;SDS011;11002;48.256;10.084;2023-11-21T04:55:18;1.80;;;0.57;;
21681;SDS011;11002;48.256;10.084;2023-11-21T04:57:46;0.95;;;0.40;;
21681;SDS011;11002;48.256;10.084;2023-11-21T05:00:13;3.83;;;0.60;;
21681;SDS011;11002;48.256;10.084;2023-11-21T05:02:49;2.30;;;0.40;;
21681;SDS011;11002;48.256;10.084;2023-11-21T05:05:30;1.55;;;0.47;;
21681;SDS011;11002;48.256;10.084;2023-11-21T05:07:58;1.98;;;0.35;;
21681;SDS011;11002;48.256;10.084;2023-11-21T05:10:26;0.50;;;0.30;;
21681;SDS011;11002;48.256;10.084;2023-11-21T05:12:54;1.00;;;0.25;;
21681;SDS011;11002;48.256;10.084;2023-11-21T05:15:24;1.13;;;0.30;;
21681;SDS011;11002;48.256;10.084;2023-11-21T05:17:53;3.05;;;0.30;;
21681;SDS011;11002;48.256;10.084;2023-11-21T05:20:21;0.63;;;0.50;;
21681;SDS011;11002;48.256;10.084;2023-11-21T05:22:50;2.03;;;0.55;;
21681;SDS011;11002;48.256;10.084;2023-11-21T05:25:20;2.30;;;0.38;;
21681;SDS011;11002;48.256;10.084;2023-11-21T05:27:49;3.97;;;0.52;;
21681;SDS011;11002;48.256;10.084;2023-11-21T05:30:16;6.50;;;0.63;;
21681;SDS011;11002;48.256;10.084;2023-11-21T05:32:44;0.85;;;0.30;;
21681;SDS011;11002;48.256;10.084;2023-11-21T05:35:12;0.77;;;0.63;;
21681;SDS011;11002;48.256;10.084;2023-11-21T05:37:41;0.75;;;0.30;;
21681;SDS011;11002;48.256;10.084;2023-11-21T05:40:11;0.20;;;0.20;;
21681;SDS011;11002;48.256;10.084;2023-11-21T05:42:39;1.65;;;0.30;;
21681;SDS011;11002;48.256;10.084;2023-11-21T05:45:07;4.78;;;0.55;;
21681;SDS011;11002;48.256;10.084;2023-11-21T05:47:37;1.58;;;0.38;;
21681;SDS011;11002;48.256;10.084;2023-11-21T05:50:06;5.22;;;0.65;;
21681;SDS011;11002;48.256;10.084;2023-11-21T05:52:40;0.80;;;0.35;;
21681;SDS011;11002;48.256;10.084;2023-11-21T05:55:08;0.35;;;0.30;;
21681;SDS011;11002;48.256;10.084;2023-11-21T05:57:39;0.90;;;0.45;;
21681;SDS011;11002;48.256;10.084;2023-11-21T06:00:08;0.20;;;0.20;;
21681;SDS011;11002;48.256;10.084;2023-11-21T06:02:41;2.30;;;0.20;;
21681;SDS011;11002;48.256;10.084;2023-11-21T06:05:09;0.22;;;0.20;;
21681;SDS011;11002;48.256;10.084;2023-11-21T06:07:37;1.15;;;0.28;;
21681;SDS011;11002;48.256;10.084;2023-11-21T06:10:06;4.80;;;0.52;;
21681;SDS011;11002;48.256;10.084;2023-11-21T06:12:40;2.08;;;0.40;;
21681;SDS011;11002;48.256;10.084;2023-11-21T06:15:12;2.50;;;0.40;;
21681;SDS011;11002;48.256;10.084;2023-11-21T06:17:40;1.83;;;0.40;;
21681;SDS011;11002;48.256;10.084;2023-11-21T06:20:16;4.05;;;0.63;;
21681;SDS011;11002;48.256;10.084;2023-11-21T06:22:59;0.82;;;0.30;;
21681;SDS011;11002;48.256;10.084;2023-11-21T06:28:57;0.68;;;0.28;;
21681;SDS011;11002;48.256;10.084;2023-11-21T06:31:35;2.60;;;0.40;;
21681;SDS011;11002;48.256;10.084;2023-11-21T06:34:16;2.28;;;0.50;;
21681;SDS011;11002;48.256;10.084;2023-11-21T06:39:48;0.77;;;0.40;;
21681;SDS011;11002;48.256;10.084;2023-11-21T06:42:56;1.23;;;0.40;;
21681;SDS011;11002;48.256;10.084;2023-11-21T06:45:29;0.20;;;0.20;;
21681;SDS011;11002;48.256;10.084;2023-11-21T06:48:12;0.30;;;0.25;;
21681;SDS011;11002;48.256;10.084;2023-11-21T06:51:03;0.52;;;0.20;;
21681;SDS011;11002;48.256;10.084;2023-11-21T06:53:45;2.58;;;0.30;;
21681;SDS011;11002;48.256;10.084;2023-11-21T06:56:16;0.25;;;0.25;;
21681;SDS011;11002;48.256;10.084;2023-11-21T06:58:45;2.47;;;0.47;;
21681;SDS011;11002;48.256;10.084;2023-11-21T07:01:21;0.22;;;0.17;;
21681;SDS011;11002;48.256;10.084;2023-11-21T07:03:51;2.90;;;0.43;;
21681;SDS011;11002;48.256;10.084;2023-11-21T07:06:22;2.65;;;0.40;;
21681;SDS011;11002;48.256;10.084;2023-11-21T07:09:02;1.75;;;0.40;;
21681;SDS011;11002;48.256;10.084;2023-11-21T07:11:44;1.00;;;0.30;;
21681;SDS011;11002;48.256;10.084;2023-11-21T07:14:46;0.50;;;0.30;;
21681;SDS011;11002;48.256;10.084;2023-11-21T07:17:57;0.43;;;0.32;;
21681;SDS011;11002;48.256;10.084;2023-11-21T07:21:01;1.95;;;0.50;;
21681;SDS011;11002;48.256;10.084;2023-11-21T07:24:27;0.85;;;0.40;;
21681;SDS011;11002;48.256;10.084;2023-11-21T07:27:04;1.60;;;0.40;;
21681;SDS011;11002;48.256;10.084;2023-11-21T07:29:37;1.02;;;0.35;;
21681;SDS011;11002;48.256;10.084;2023-11-21T07:32:11;2.15;;;0.73;;
21681;SDS011;11002;48.256;10.084;2023-11-21T07:35:30;2.38;;;0.50;;
21681;SDS011;11002;48.256;10.084;2023-11-21T07:37:59;3.05;;;0.43;;
21681;SDS011;11002;48.256;10.084;2023-11-21T07:40:27;3.60;;;0.80;;
21681;SDS011;11002;48.256;10.084;2023-11-21T07:43:13;2.47;;;0.57;;
21681;SDS011;11002;48.256;10.084;2023-11-21T07:45:59;1.75;;;0.60;;
21681;SDS011;11002;48.256;10.084;2023-11-21T07:48:53;1.23;;;0.50;;
21681;SDS011;11002;48.256;10.084;2023-11-21T07:51:53;0.50;;;0.45;;
21681;SDS011;11002;48.256;10.084;2023-11-21T07:54:35;1.92;;;0.40;;
21681;SDS011;11002;48.256;10.084;2023-11-21T07:57:31;2.05;;;0.50;;
21681;SDS011;11002;48.256;10.084;2023-11-21T08:00:39;2.08;;;0.47;;
21681;SDS011;11002;48.256;10.084;2023-11-21T08:03:36;3.70;;;0.50;;
21681;SDS011;11002;48.256;10.084;2023-11-21T08:06:10;1.10;;;0.60;;
21681;SDS011;11002;48.256;10.084;2023-11-21T08:08:55;1.05;;;0.50;;
21681;SDS011;11002;48.256;10.084;2023-11-21T08:12:07;1.45;;;0.52;;
21681;SDS011;11002;48.256;10.084;2023-11-21T08:14:57;2.72;;;0.43;;
21681;SDS011;11002;48.256;10.084;2023-11-21T08:17:48;0.80;;;0.65;;
21681;SDS011;11002;48.256;10.084;2023-11-21T08:20:16;1.77;;;0.60;;
21681;SDS011;11002;48.256;10.084;2023-11-21T08:23:23;1.80;;;0.85;;
21681;SDS011;11002;48.256;10.084;2023-11-21T08:25:57;1.05;;;0.43;;
21681;SDS011;11002;48.256;10.084;2023-11-21T08:28:34;0.80;;;0.40;;
21681;SDS011;11002;48.256;10.084;2023-11-21T08:31:23;3.80;;;0.50;;
21681;SDS011;11002;48.256;10.084;2023-11-21T08:34:21;0.60;;;0.35;;
21681;SDS011;11002;48.256;10.084;2023-11-21T08:37:07;0.63;;;0.40;;
21681;SDS011;11002;48.256;10.084;2023-11-21T08:39:41;4.30;;;0.60;;
21681;SDS011;11002;48.256;10.084;2023-11-21T08:42:11;2.88;;;0.80;;
21681;SDS011;11002;48.256;10.084;2023-11-21T08:44:40;1.95;;;0.98;;
21681;SDS011;11002;48.256;10.084;2023-11-21T08:47:10;1.52;;;0.60;;
21681;SDS011;11002;48.256;10.084;2023-11-21T08:49:38;0.55;;;0.40;;
21681;SDS011;11002;48.256;10.084;2023-11-21T08:52:09;1.75;;;0.70;;
21681;SDS011;11002;48.256;10.084;2023-11-21T08:54:39;2.85;;;0.40;;
21681;SDS011;11002;48.256;10.084;2023-11-21T08:57:07;2.05;;;0.85;;
21681;SDS011;11002;48.256;10.084;2023-11-21T08:59:39;1.75;;;0.50;;
21681;SDS011;11002;48.256;10.084;2023-11-21T09:02:10;1.92;;;0.40;;
21681;SDS011;11002;48.256;10.084;2023-11-21T09:04:42;1.27;;;0.70;;
21681;SDS011;11002;48.256;10.084;2023-11-21T09:07:13;1.00;;;0.52;;
21681;SDS011;11002;48.256;10.084;2023-11-21T09:09:41;4.43;;;1.00;;
21681;SDS011;11002;48.256;10.084;2023-11-21T09:12:09;2.13;;;0.60;;
21681;SDS011;11002;48.256;10.084;2023-11-21T09:14:39;6.35;;;0.80;;
21681;SDS011;11002;48.256;10.084;2023-11-21T09:17:08;0.40;;;0.35;;
21681;SDS011;11002;48.256;10.084;2023-11-21T09:19:38;2.58;;;0.98;;
21681;SDS011;11002;48.256;10.084;2023-11-21T09:22:06;2.45;;;0.70;;
21681;SDS011;11002;48.256;10.084;2023-11-21T09:24:46;1.73;;;0.43;;
21681;SDS011;11002;48.256;10.084;2023-11-21T09:27:14;1.23;;;0.88;;
21681;SDS011;11002;48.256;10.084;2023-11-21T09:29:49;1.80;;;0.60;;
21681;SDS011;11002;48.256;10.084;2023-11-21T09:32:18;1.45;;;0.63;;
21681;SDS011;11002;48.256;10.084;2023-11-21T09:37:41;1.05;;;0.50;;
21681;SDS011;11002;48.256;10.084;2023-11-21T09:40:31;0.90;;;0.63;;
21681;SDS011;11002;48.256;10.084;2023-11-21T09:43:16;5.32;;;0.68;;
21681;SDS011;11002;48.256;10.084;2023-11-21T09:45:46;1.02;;;0.55;;
21681;SDS011;11002;48.256;10.084;2023-11-21T09:48:21;2.38;;;0.60;;
21681;SDS011;11002;48.256;10.084;2023-11-21T09:50:55;3.03;;;1.00;;
21681;SDS011;11002;48.256;10.084;2023-11-21T09:53:32;2.38;;;0.50;;
21681;SDS011;11002;48.256;10.084;2023-11-21T09:56:03;1.60;;;0.80;;
21681;SDS011;11002;48.256;10.084;2023-11-21T09:58:36;2.38;;;0.70;;
21681;SDS011;11002;48.256;10.084;2023-11-21T10:01:06;0.63;;;0.47;;
21681;SDS011;11002;48.256;10.084;2023-11-21T10:03:35;0.40;;;0.40;;
21681;SDS011;11002;48.256;10.084;2023-11-21T10:06:05;4.40;;;0.50;;
21681;SDS011;11002;48.256;10.084;2023-11-21T10:08:40;1.65;;;0.70;;
21681;SDS011;11002;48.256;10.084;2023-11-21T10:11:11;1.35;;;0.70;;
21681;SDS011;11002;48.256;10.084;2023-11-21T10:13:41;1.30;;;0.45;;
21681;SDS011;11002;48.256;10.084;2023-11-21T10:16:14;0.90;;;0.50;;
21681;SDS011;11002;48.256;10.084;2023-11-21T10:18:48;2.72;;;0.60;;
21681;SDS011;11002;48.256;10.084;2023-11-21T10:21:20;2.17;;;0.55;;
21681;SDS011;11002;48.256;10.084;2023-11-21T10:23:48;1.00;;;0.55;;
21681;SDS011;11002;48.256;10.084;2023-11-21T10:26:19;1.75;;;0.63;;
21681;SDS011;11002;48.256;10.084;2023-11-21T10:28:59;1.58;;;0.60;;
21681;SDS011;11002;48.256;10.084;2023-11-21T10:31:57;1.65;;;0.55;;
21681;SDS011;11002;48.256;10.084;2023-11-21T10:35:02;2.15;;;0.40;;
21681;SDS011;11002;48.256;10.084;2023-11-21T10:37:44;1.13;;;0.43;;
21681;SDS011;11002;48.256;10.084;2023-11-21T10:40:27;0.50;;;0.50;;
21681;SDS011;11002;48.256;10.084;2023-11-21T10:43:28;0.73;;;0.47;;
21681;SDS011;11002;48.256;10.084;2023-11-21T10:46:13;3.78;;;0.60;;
21681;SDS011;11002;48.256;10.084;2023-11-21T10:48:53;0.35;;;0.20;;
21681;SDS011;11002;48.256;10.084;2023-11-21T10:51:25;0.47;;;0.45;;
21681;SDS011;11002;48.256;10.084;2023-11-21T10:53:54;0.60;;;0.30;;
21681;SDS011;11002;48.256;10.084;2023-11-21T10:56:23;2.08;;;0.70;;
21681;SDS011;11002;48.256;10.084;2023-11-21T10:59:05;1.02;;;0.63;;
21681;SDS011;11002;48.256;10.084;2023-11-21T11:01:35;1.73;;;0.60;;
21681;SDS011;11002;48.256;10.084;2023-11-21T11:04:10;1.17;;;0.45;;
21681;SDS011;11002;48.256;10.084;2023-11-21T11:06:59;1.95;;;0.60;;
21681;SDS011;11002;48.256;10.084;2023-11-21T11:09:31;0.90;;;0.40;;
21681;SDS011;11002;48.256;10.084;2023-11-21T11:12:01;1.25;;;0.60;;
21681;SDS011;11002;48.256;10.084;2023-11-21T11:14:31;1.55;;;0.70;;
21681;SDS011;11002;48.256;10.084;2023-11-21T11:17:02;0.52;;;0.45;;
21681;SDS011;11002;48.256;10.084;2023-11-21T11:19:42;0.90;;;0.45;;
21681;SDS011;11002;48.256;10.084;2023-11-21T11:22:13;0.70;;;0.47;;
21681;SDS011;11002;48.256;10.084;2023-11-21T11:25:01;3.10;;;0.90;;
21681;SDS011;11002;48.256;10.084;2023-11-21T11:27:48;1.05;;;0.43;;
21681;SDS011;11002;48.256;10.084;2023-11-21T11:30:40;0.60;;;0.30;;
21681;SDS011;11002;48.256;10.084;2023-11-21T11:33:29;1.85;;;0.30;;
21681;SDS011;11002;48.256;10.084;2023-11-21T11:36:06;0.28;;;0.28;;
21681;SDS011;11002;48.256;10.084;2023-11-21T11:38:38;0.98;;;0.30;;
21681;SDS011;11002;48.256;10.084;2023-11-21T11:41:25;2.90;;;0.40;;
21681;SDS011;11002;48.256;10.084;2023-11-21T11:44:00;1.27;;;0.32;;
21681;SDS011;11002;48.256;10.084;2023-11-21T11:46:41;0.52;;;0.35;;
21681;SDS011;11002;48.256;10.084;2023-11-21T11:49:23;0.30;;;0.30;;
21681;SDS011;11002;48.256;10.084;2023-11-21T11:52:38;0.65;;;0.50;;
21681;SDS011;11002;48.256;10.084;2023-11-21T11:55:47;1.65;;;0.43;;
21681;SDS011;11002;48.256;10.084;2023-11-21T11:58:54;0.30;;;0.20;;
21681;SDS011;11002;48.256;10.084;2023-11-21T12:01:40;1.08;;;0.30;;
21681;SDS011;11002;48.256;10.084;2023-11-21T12:04:25;0.93;;;0.32;;
21681;SDS011;11002;48.256;10.084;2023-11-21T12:07:02;1.38;;;0.22;;
21681;SDS011;11002;48.256;10.084;2023-11-21T12:09:41;0.57;;;0.50;;
21681;SDS011;11002;48.256;10.084;2023-11-21T12:12:27;0.52;;;0.40;;
21681;SDS011;11002;48.256;10.084;2023-11-21T12:15:07;1.23;;;0.40;;
21681;SDS011;11002;48.256;10.084;2023-11-21T12:17:35;1.67;;;0.73;;
21681;SDS011;11002;48.256;10.084;2023-11-21T12:20:04;1.73;;;0.70;;
21681;SDS011;11002;48.256;10.084;2023-11-21T12:22:41;0.50;;;0.45;;
21681;SDS011;11002;48.256;10.084;2023-11-21T12:25:11;0.40;;;0.32;;
21681;SDS011;11002;48.256;10.084;2023-11-21T12:27:42;0.52;;;0.52;;
21681;SDS011;11002;48.256;10.084;2023-11-21T12:30:12;1.55;;;0.50;;
21681;SDS011;11002;48.256;10.084;2023-11-21T12:32:44;0.68;;;0.40;;
21681;SDS011;11002;48.256;10.084;2023-11-21T12:35:15;0.50;;;0.30;;
21681;SDS011;11002;48.256;10.084;2023-11-21T12:37:45;0.40;;;0.30;;
21681;SDS011;11002;48.256;10.084;2023-11-21T12:40:24;0.65;;;0.47;;
21681;SDS011;11002;48.256;10.084;2023-11-21T12:42:57;0.40;;;0.40;;
21681;SDS011;11002;48.256;10.084;2023-11-21T12:45:30;0.47;;;0.28;;
21681;SDS011;11002;48.256;10.084;2023-11-21T12:48:01;0.47;;;0.32;;
21681;SDS011;11002;48.256;10.084;2023-11-21T12:50:36;1.55;;;0.50;;
21681;SDS011;11002;48.256;10.084;2023-11-21T12:53:14;0.60;;;0.40;;
21681;SDS011;11002;48.256;10.084;2023-11-21T12:55:46;0.63;;;0.30;;
21681;SDS011;11002;48.256;10.084;2023-11-21T12:58:17;0.43;;;0.38;;
21681;SDS011;11002;48.256;10.084;2023-11-21T13:00:49;0.30;;;0.30;;
21681;SDS011;11002;48.256;10.084;2023-11-21T13:03:20;0.45;;;0.30;;
21681;SDS011;11002;48.256;10.084;2023-11-21T13:06:02;0.20;;;0.20;;
21681;SDS011;11002;48.256;10.084;2023-11-21T13:08:35;0.10;;;0.10;;
21681;SDS011;11002;48.256;10.084;2023-11-21T13:11:10;0.22;;;0.20;;
21681;SDS011;11002;48.256;10.084;2023-11-21T13:13:47;0.20;;;0.20;;
21681;SDS011;11002;48.256;10.084;2023-11-21T13:16:15;0.15;;;0.15;;
21681;SDS011;11002;48.256;10.084;2023-11-21T13:18:54;0.20;;;0.20;;
21681;SDS011;11002;48.256;10.084;2023-11-21T13:21:27;3.22;;;1.23;;
21681;SDS011;11002;48.256;10.084;2023-11-21T13:24:14;1.30;;;0.65;;
21681;SDS011;11002;48.256;10.084;2023-11-21T13:26:56;2.05;;;0.75;;
21681;SDS011;11002;48.256;10.084;2023-11-21T13:29:34;0.40;;;0.40;;
21681;SDS011;11002;48.256;10.084;2023-11-21T13:32:10;1.25;;;1.00;;
21681;SDS011;11002;48.256;10.084;2023-11-21T13:34:48;13.20;;;7.25;;
21681;SDS011;11002;48.256;10.084;2023-11-21T13:37:25;0.55;;;0.50;;
21681;SDS011;11002;48.256;10.084;2023-11-21T13:40:06;9.98;;;4.90;;
21681;SDS011;11002;48.256;10.084;2023-11-21T13:42:51;7.28;;;4.78;;
21681;SDS011;11002;48.256;10.084;2023-11-21T13:45:23;2.92;;;2.72;;
21681;SDS011;11002;48.256;10.084;2023-11-21T13:47:53;0.82;;;0.73;;
21681;SDS011;11002;48.256;10.084;2023-11-21T13:50:28;0.80;;;0.80;;
21681;SDS011;11002;48.256;10.084;2023-11-21T13:52:59;0.68;;;0.65;;
21681;SDS011;11002;48.256;10.084;2023-11-21T13:56:07;0.88;;;0.65;;
21681;SDS011;11002;48.256;10.084;2023-11-21T13:58:38;1.48;;;0.80;;
21681;SDS011;11002;48.256;10.084;2023-11-21T14:01:19;0.70;;;0.70;;
21681;SDS011;11002;48.256;10.084;2023-11-21T14:04:24;0.45;;;0.45;;
21681;SDS011;11002;48.256;10.084;2023-11-21T14:07:23;0.40;;;0.40;;
21681;SDS011;11002;48.256;10.084;2023-11-21T14:10:01;0.65;;;0.50;;
21681;SDS011;11002;48.256;10.084;2023-11-21T14:12:30;0.30;;;0.30;;
21681;SDS011;11002;48.256;10.084;2023-11-21T14:15:01;1.30;;;0.20;;
21681;SDS011;11002;48.256;10.084;2023-11-21T14:17:51;1.20;;;0.40;;
21681;SDS011;11002;48.256;10.084;2023-11-21T14:20:21;0.30;;;0.22;;
21681;SDS011;11002;48.256;10.084;2023-11-21T14:22:51;0.60;;;0.40;;
21681;SDS011;11002;48.256;10.084;2023-11-21T14:25:26;1.85;;;0.80;;
21681;SDS011;11002;48.256;10.084;2023-11-21T14:27:55;3.05;;;1.60;;
21681;SDS011;11002;48.256;10.084;2023-11-21T14:30:24;3.65;;;1.85;;
21681;SDS011;11002;48.256;10.084;2023-11-21T14:32:53;2.08;;;0.98;;
21681;SDS011;11002;48.256;10.084;2023-11-21T14:35:30;2.33;;;0.93;;
21681;SDS011;11002;48.256;10.084;2023-11-21T14:38:16;0.50;;;0.50;;
21681;SDS011;11002;48.256;10.084;2023-11-21T14:40:48;0.95;;;0.55;;
21681;SDS011;11002;48.256;10.084;2023-11-21T14:43:16;0.52;;;0.45;;
21681;SDS011;11002;48.256;10.084;2023-11-21T14:45:47;0.73;;;0.47;;
21681;SDS011;11002;48.256;10.084;2023-11-21T14:48:20;0.70;;;0.40;;
21681;SDS011;11002;48.256;10.084;2023-11-21T14:51:11;0.40;;;0.30;;
21681;SDS011;11002;48.256;10.084;2023-11-21T14:54:01;0.25;;;0.20;;
21681;SDS011;11002;48.256;10.084;2023-11-21T14:56:48;0.20;;;0.20;;
21681;SDS011;11002;48.256;10.084;2023-11-21T14:59:17;0.30;;;0.30;;
21681;SDS011;11002;48.256;10.084;2023-11-21T15:01:52;1.30;;;0.50;;
21681;SDS011;11002;48.256;10.084;2023-11-21T15:04:21;0.57;;;0.43;;
21681;SDS011;11002;48.256;10.084;2023-11-21T15:07:10;0.80;;;0.68;;
21681;SDS011;11002;48.256;10.084;2023-11-21T15:09:47;2.50;;;1.80;;
21681;SDS011;11002;48.256;10.084;2023-11-21T15:12:16;5.22;;;2.72;;
21681;SDS011;11002;48.256;10.084;2023-11-21T15:14:47;2.78;;;2.35;;
21681;SDS011;11002;48.256;10.084;2023-11-21T15:19:52;3.10;;;1.90;;
21681;SDS011;11002;48.256;10.084;2023-11-21T15:22:22;5.50;;;2.90;;
21681;SDS011;11002;48.256;10.084;2023-11-21T15:24:55;6.68;;;4.80;;
21681;SDS011;11002;48.256;10.084;2023-11-21T15:27:39;11.80;;;5.60;;
21681;SDS011;11002;48.256;10.084;2023-11-21T15:30:08;14.73;;;8.02;;
21681;SDS011;11002;48.256;10.084;2023-11-21T15:32:43;39.25;;;21.85;;
21681;SDS011;11002;48.256;10.084;2023-11-21T15:35:36;25.38;;;15.20;;
21681;SDS011;11002;48.256;10.084;2023-11-21T15:38:15;34.25;;;19.27;;
21681;SDS011;11002;48.256;10.084;2023-11-21T15:40:43;20.58;;;12.25;;
21681;SDS011;11002;48.256;10.084;2023-11-21T15:43:15;19.48;;;10.68;;
21681;SDS011;11002;48.256;10.084;2023-11-21T15:45:44;13.45;;;8.38;;
21681;SDS011;11002;48.256;10.084;2023-11-21T15:48:14;11.75;;;7.18;;
21681;SDS011;11002;48.256;10.084;2023-11-21T15:50:45;12.50;;;8.35;;
21681;SDS011;11002;48.256;10.084;2023-11-21T15:53:16;11.80;;;6.50;;